sensor_id;sensor_type;location;lat;lon;timestamp;pressure;altitude;pressure_sealevel;temperature;humidity
42603;BME280;28233;55.748;48.752;2024-01-30T00:01:35;99574.81;;;-3.78;100.00
42603;BME280;28233;55.748;48.752;2024-01-30T00:03:38;99593.38;;;-3.76;100.00
42603;BME280;28233;55.748;48.752;2024-01-30T00:05:41;99586.00;;;-3.81;100.00
42603;BME280;28233;55.748;48.752;2024-01-30T00:07:45;99575.25;;;-3.81;100.00
42603;BME280;28233;55.748;48.752;2024-01-30T00:09:48;99562.88;;;-3.82;100.00
42603;BME280;28233;55.748;48.752;2024-01-30T00:11:51;99554.47;;;-3.86;100.00
42603;BME280;28233;55.748;48.752;2024-01-30T00:13:53;99562.97;;;-3.89;100.00
42603;BME280;28233;55.748;48.752;2024-01-30T00:15:57;99551.28;;;-3.94;100.00
42603;BME280;28233;55.748;48.752;2024-01-30T00:18:00;99548.94;;;-3.91;100.00
42603;BME280;28233;55.748;48.752;2024-01-30T00:20:04;99548.00;;;-3.96;100.00
42603;BME280;28233;55.748;48.752;2024-01-30T00:22:08;99546.13;;;-3.96;100.00
42603;BME280;28233;55.748;48.752;2024-01-30T00:24:11;99553.16;;;-3.95;100.00
42603;BME280;28233;55.748;48.752;2024-01-30T00:26:14;99539.94;;;-3.96;100.00
42603;BME280;28233;55.748;48.752;2024-01-30T00:28:17;99539.72;;;-3.95;100.00
42603;BME280;28233;55.748;48.752;2024-01-30T00:30:20;99543.22;;;-3.94;100.00
42603;BME280;28233;55.748;48.752;2024-01-30T00:32:23;99539.34;;;-3.98;100.00
42603;BME280;28233;55.748;48.752;2024-01-30T00:34:26;99558.34;;;-4.00;100.00
42603;BME280;28233;55.748;48.752;2024-01-30T00:36:29;99557.66;;;-3.95;100.00
42603;BME280;28233;55.748;48.752;2024-01-30T00:38:32;99560.00;;;-3.99;100.00
42603;BME280;28233;55.748;48.752;2024-01-30T00:40:35;99544.13;;;-4.00;100.00
42603;BME280;28233;55.748;48.752;2024-01-30T00:42:38;99538.31;;;-3.97;100.00
42603;BME280;28233;55.748;48.752;2024-01-30T00:44:41;99530.47;;;-3.99;100.00
42603;BME280;28233;55.748;48.752;2024-01-30T00:46:43;99534.13;;;-3.93;100.00
42603;BME280;28233;55.748;48.752;2024-01-30T00:48:46;99518.81;;;-3.93;100.00
42603;BME280;28233;55.748;48.752;2024-01-30T00:50:49;99518.38;;;-3.90;100.00
42603;BME280;28233;55.748;48.752;2024-01-30T00:52:52;99507.06;;;-3.92;100.00
42603;BME280;28233;55.748;48.752;2024-01-30T00:54:54;99510.34;;;-3.90;100.00
42603;BME280;28233;55.748;48.752;2024-01-30T00:56:57;99503.09;;;-3.89;100.00
42603;BME280;28233;55.748;48.752;2024-01-30T00:59:00;99507.66;;;-3.90;100.00
42603;BME280;28233;55.748;48.752;2024-01-30T01:01:03;99496.31;;;-3.92;100.00
42603;BME280;28233;55.748;48.752;2024-01-30T01:03:06;99503.91;;;-3.89;100.00
42603;BME280;28233;55.748;48.752;2024-01-30T01:05:09;99495.84;;;-3.89;100.00
42603;BME280;28233;55.748;48.752;2024-01-30T01:07:12;99489.69;;;-3.89;100.00
42603;BME280;28233;55.748;48.752;2024-01-30T01:09:15;99479.16;;;-3.91;100.00
42603;BME280;28233;55.748;48.752;2024-01-30T01:11:18;99501.00;;;-3.87;100.00
42603;BME280;28233;55.748;48.752;2024-01-30T01:13:21;99492.94;;;-3.87;100.00
42603;BME280;28233;55.748;48.752;2024-01-30T01:15:24;99491.69;;;-3.85;100.00
42603;BME280;28233;55.748;48.752;2024-01-30T01:17:31;99485.25;;;-3.84;100.00
42603;BME280;28233;55.748;48.752;2024-01-30T01:19:33;99479.06;;;-3.84;100.00
42603;BME280;28233;55.748;48.752;2024-01-30T01:21:36;99483.16;;;-3.82;100.00
42603;BME280;28233;55.748;48.752;2024-01-30T01:23:40;99489.59;;;-3.83;100.00
42603;BME280;28233;55.748;48.752;2024-01-30T01:25:43;99493.09;;;-3.82;100.00
42603;BME280;28233;55.748;48.752;2024-01-30T01:27:46;99476.16;;;-3.83;100.00
42603;BME280;28233;55.748;48.752;2024-01-30T01:29:54;99481.53;;;-3.83;100.00
42603;BME280;28233;55.748;48.752;2024-01-30T01:31:58;99471.59;;;-3.82;100.00
42603;BME280;28233;55.748;48.752;2024-01-30T01:34:00;99458.06;;;-3.87;100.00
42603;BME280;28233;55.748;48.752;2024-01-30T01:36:04;99465.66;;;-3.84;100.00
42603;BME280;28233;55.748;48.752;2024-01-30T01:38:06;99478.03;;;-3.83;100.00
42603;BME280;28233;55.748;48.752;2024-01-30T01:40:09;99472.06;;;-3.85;100.00
42603;BME280;28233;55.748;48.752;2024-01-30T01:42:12;99475.56;;;-3.85;100.00
42603;BME280;28233;55.748;48.752;2024-01-30T01:44:15;99465.28;;;-3.88;100.00
42603;BME280;28233;55.748;48.752;2024-01-30T01:46:17;99462.63;;;-3.88;100.00
42603;BME280;28233;55.748;48.752;2024-01-30T01:48:20;99450.47;;;-3.90;100.00
42603;BME280;28233;55.748;48.752;2024-01-30T01:50:24;99452.31;;;-3.91;100.00
42603;BME280;28233;55.748;48.752;2024-01-30T01:52:28;99461.22;;;-3.90;100.00
42603;BME280;28233;55.748;48.752;2024-01-30T01:54:31;99444.13;;;-3.96;100.00
42603;BME280;28233;55.748;48.752;2024-01-30T01:56:34;99438.75;;;-3.96;100.00
42603;BME280;28233;55.748;48.752;2024-01-30T01:58:38;99453.00;;;-3.95;100.00
42603;BME280;28233;55.748;48.752;2024-01-30T02:00:41;99431.78;;;-3.97;100.00
42603;BME280;28233;55.748;48.752;2024-01-30T02:02:45;99432.13;;;-3.93;100.00
42603;BME280;28233;55.748;48.752;2024-01-30T02:04:49;99409.50;;;-3.97;100.00
42603;BME280;28233;55.748;48.752;2024-01-30T02:06:52;99422.53;;;-4.01;100.00
42603;BME280;28233;55.748;48.752;2024-01-30T02:08:55;99417.84;;;-4.06;100.00
42603;BME280;28233;55.748;48.752;2024-01-30T02:10:58;99419.25;;;-4.03;100.00
42603;BME280;28233;55.748;48.752;2024-01-30T02:13:01;99399.16;;;-4.12;100.00
42603;BME280;28233;55.748;48.752;2024-01-30T02:15:04;99403.03;;;-4.08;100.00
42603;BME280;28233;55.748;48.752;2024-01-30T02:17:17;99411.66;;;-4.06;100.00
42603;BME280;28233;55.748;48.752;2024-01-30T02:19:21;99407.34;;;-4.07;100.00
42603;BME280;28233;55.748;48.752;2024-01-30T02:21:24;99419.59;;;-4.11;100.00
42603;BME280;28233;55.748;48.752;2024-01-30T02:23:27;99423.09;;;-4.11;100.00
42603;BME280;28233;55.748;48.752;2024-01-30T02:25:33;99418.91;;;-4.07;100.00
42603;BME280;28233;55.748;48.752;2024-01-30T02:27:36;99441.06;;;-4.11;100.00
42603;BME280;28233;55.748;48.752;2024-01-30T02:29:39;99412.81;;;-4.14;100.00
42603;BME280;28233;55.748;48.752;2024-01-30T02:31:41;99413.63;;;-4.13;100.00
42603;BME280;28233;55.748;48.752;2024-01-30T02:33:44;99424.38;;;-4.13;100.00
42603;BME280;28233;55.748;48.752;2024-01-30T02:35:47;99410.72;;;-4.12;100.00
42603;BME280;28233;55.748;48.752;2024-01-30T02:37:50;99401.13;;;-4.19;100.00
42603;BME280;28233;55.748;48.752;2024-01-30T02:39:53;99409.69;;;-4.11;100.00
42603;BME280;28233;55.748;48.752;2024-01-30T02:41:56;99397.28;;;-4.12;100.00
42603;BME280;28233;55.748;48.752;2024-01-30T02:43:59;99393.91;;;-4.07;100.00
42603;BME280;28233;55.748;48.752;2024-01-30T02:46:02;99387.16;;;-4.10;100.00
42603;BME280;28233;55.748;48.752;2024-01-30T02:48:05;99404.44;;;-4.06;100.00
42603;BME280;28233;55.748;48.752;2024-01-30T02:50:09;99395.31;;;-4.05;100.00
42603;BME280;28233;55.748;48.752;2024-01-30T02:52:12;99396.38;;;-4.06;100.00
42603;BME280;28233;55.748;48.752;2024-01-30T02:54:15;99396.38;;;-4.06;100.00
42603;BME280;28233;55.748;48.752;2024-01-30T02:56:17;99396.97;;;-4.04;100.00
42603;BME280;28233;55.748;48.752;2024-01-30T02:58:20;99391.00;;;-4.06;100.00
42603;BME280;28233;55.748;48.752;2024-01-30T03:00:23;99387.28;;;-4.05;100.00
42603;BME280;28233;55.748;48.752;2024-01-30T03:02:26;99426.13;;;-4.07;100.00
42603;BME280;28233;55.748;48.752;2024-01-30T03:04:29;99413.53;;;-4.07;100.00
42603;BME280;28233;55.748;48.752;2024-01-30T03:06:32;99400.47;;;-4.03;100.00
42603;BME280;28233;55.748;48.752;2024-01-30T03:08:35;99399.28;;;-4.07;100.00
42603;BME280;28233;55.748;48.752;2024-01-30T03:10:38;99405.22;;;-4.17;100.00
42603;BME280;28233;55.748;48.752;2024-01-30T03:12:41;99402.44;;;-4.10;100.00
42603;BME280;28233;55.748;48.752;2024-01-30T03:14:44;99415.38;;;-4.07;100.00
42603;BME280;28233;55.748;48.752;2024-01-30T03:16:46;99433.81;;;-4.11;100.00
42603;BME280;28233;55.748;48.752;2024-01-30T03:18:49;99400.56;;;-4.10;100.00
42603;BME280;28233;55.748;48.752;2024-01-30T03:20:52;99412.34;;;-4.11;100.00
42603;BME280;28233;55.748;48.752;2024-01-30T03:22:55;99410.72;;;-4.12;100.00
42603;BME280;28233;55.748;48.752;2024-01-30T03:24:58;99410.50;;;-4.10;100.00
42603;BME280;28233;55.748;48.752;2024-01-30T03:27:01;99399.97;;;-4.12;100.00
42603;BME280;28233;55.748;48.752;2024-01-30T03:29:04;99400.34;;;-4.08;100.00
42603;BME280;28233;55.748;48.752;2024-01-30T03:31:07;99396.00;;;-4.09;100.00
42603;BME280;28233;55.748;48.752;2024-01-30T03:33:10;99392.88;;;-4.06;100.00
42603;BME280;28233;55.748;48.752;2024-01-30T03:35:12;99387.41;;;-4.11;100.00
42603;BME280;28233;55.748;48.752;2024-01-30T03:37:15;99401.03;;;-4.13;100.00
42603;BME280;28233;55.748;48.752;2024-01-30T03:39:18;99383.06;;;-4.12;100.00
42603;BME280;28233;55.748;48.752;2024-01-30T03:41:21;99398.13;;;-4.11;100.00
42603;BME280;28233;55.748;48.752;2024-01-30T03:43:23;99393.31;;;-4.09;100.00
42603;BME280;28233;55.748;48.752;2024-01-30T03:45:26;99389.25;;;-4.12;100.00
42603;BME280;28233;55.748;48.752;2024-01-30T03:47:29;99373.13;;;-4.12;100.00
42603;BME280;28233;55.748;48.752;2024-01-30T03:49:32;99375.59;;;-4.10;100.00
42603;BME280;28233;55.748;48.752;2024-01-30T03:51:35;99366.50;;;-4.09;100.00
42603;BME280;28233;55.748;48.752;2024-01-30T03:53:38;99380.50;;;-4.07;100.00
42603;BME280;28233;55.748;48.752;2024-01-30T03:55:40;99380.28;;;-4.06;100.00
42603;BME280;28233;55.748;48.752;2024-01-30T03:57:43;99378.41;;;-4.05;100.00
42603;BME280;28233;55.748;48.752;2024-01-30T03:59:46;99376.09;;;-4.01;100.00
42603;BME280;28233;55.748;48.752;2024-01-30T04:01:49;99365.59;;;-4.03;100.00
42603;BME280;28233;55.748;48.752;2024-01-30T04:03:52;99367.47;;;-4.04;100.00
42603;BME280;28233;55.748;48.752;2024-01-30T04:05:55;99368.88;;;-4.01;100.00
42603;BME280;28233;55.748;48.752;2024-01-30T04:07:58;99386.25;;;-4.04;100.00
42603;BME280;28233;55.748;48.752;2024-01-30T04:10:01;99367.25;;;-4.02;100.00
42603;BME280;28233;55.748;48.752;2024-01-30T04:12:04;99350.88;;;-4.00;100.00
42603;BME280;28233;55.748;48.752;2024-01-30T04:14:08;99353.34;;;-3.99;100.00
42603;BME280;28233;55.748;48.752;2024-01-30T04:16:19;99344.25;;;-3.98;100.00
42603;BME280;28233;55.748;48.752;2024-01-30T04:18:23;99348.56;;;-3.97;100.00
42603;BME280;28233;55.748;48.752;2024-01-30T04:20:26;99351.59;;;-3.93;100.00
42603;BME280;28233;55.748;48.752;2024-01-30T04:22:29;99341.44;;;-3.91;100.00
42603;BME280;28233;55.748;48.752;2024-01-30T04:24:32;99344.94;;;-3.91;100.00
42603;BME280;28233;55.748;48.752;2024-01-30T04:26:34;99334.22;;;-3.91;100.00
42603;BME280;28233;55.748;48.752;2024-01-30T04:28:37;99334.22;;;-3.91;100.00
42603;BME280;28233;55.748;48.752;2024-01-30T04:30:40;99332.81;;;-3.93;100.00
42603;BME280;28233;55.748;48.752;2024-01-30T04:32:43;99324.53;;;-3.92;100.00
42603;BME280;28233;55.748;48.752;2024-01-30T04:34:46;99348.91;;;-3.93;100.00
42603;BME280;28233;55.748;48.752;2024-01-30T04:36:49;99326.41;;;-3.92;100.00
42603;BME280;28233;55.748;48.752;2024-01-30T04:38:52;99321.63;;;-3.90;100.00
42603;BME280;28233;55.748;48.752;2024-01-30T04:40:55;99334.22;;;-3.91;100.00
42603;BME280;28233;55.748;48.752;2024-01-30T04:42:58;99329.69;;;-3.90;100.00
42603;BME280;28233;55.748;48.752;2024-01-30T04:45:01;99334.81;;;-3.89;100.00
42603;BME280;28233;55.748;48.752;2024-01-30T04:47:06;99333.75;;;-3.88;100.00
42603;BME280;28233;55.748;48.752;2024-01-30T04:49:11;99333.19;;;-3.90;100.00
42603;BME280;28233;55.748;48.752;2024-01-30T04:51:14;99333.75;;;-3.88;100.00
42603;BME280;28233;55.748;48.752;2024-01-30T04:53:16;99325.56;;;-3.93;100.00
42603;BME280;28233;55.748;48.752;2024-01-30T04:55:19;99334.34;;;-3.86;100.00
42603;BME280;28233;55.748;48.752;2024-01-30T04:57:25;99329.81;;;-3.85;100.00
42603;BME280;28233;55.748;48.752;2024-01-30T04:59:27;99332.47;;;-3.85;100.00
42603;BME280;28233;55.748;48.752;2024-01-30T05:01:30;99334.09;;;-3.84;100.00
42603;BME280;28233;55.748;48.752;2024-01-30T05:03:34;99329.53;;;-3.84;100.00
42603;BME280;28233;55.748;48.752;2024-01-30T05:05:37;99338.19;;;-3.82;100.00
42603;BME280;28233;55.748;48.752;2024-01-30T05:07:41;99329.09;;;-3.80;100.00
42603;BME280;28233;55.748;48.752;2024-01-30T05:09:44;99326.66;;;-3.82;100.00
42603;BME280;28233;55.748;48.752;2024-01-30T05:11:47;99323.16;;;-3.83;100.00
42603;BME280;28233;55.748;48.752;2024-01-30T05:13:49;99323.47;;;-3.79;100.00
42603;BME280;28233;55.748;48.752;2024-01-30T05:15:52;99320.78;;;-3.79;100.00
42603;BME280;28233;55.748;48.752;2024-01-30T05:17:55;99328.63;;;-3.77;100.00
42603;BME280;28233;55.748;48.752;2024-01-30T05:19:58;99329.44;;;-3.77;100.00
42603;BME280;28233;55.748;48.752;2024-01-30T05:22:01;99329.00;;;-3.74;100.00
42603;BME280;28233;55.748;48.752;2024-01-30T05:24:04;99329.56;;;-3.72;100.00
42603;BME280;28233;55.748;48.752;2024-01-30T05:26:08;99324.78;;;-3.70;100.00
42603;BME280;28233;55.748;48.752;2024-01-30T05:28:10;99325.72;;;-3.64;100.00
42603;BME280;28233;55.748;48.752;2024-01-30T05:30:13;99315.22;;;-3.66;100.00
42603;BME280;28233;55.748;48.752;2024-01-30T05:32:16;99325.47;;;-3.63;100.00
42603;BME280;28233;55.748;48.752;2024-01-30T05:34:19;99315.56;;;-3.62;100.00
42603;BME280;28233;55.748;48.752;2024-01-30T05:36:21;99321.50;;;-3.60;100.00
42603;BME280;28233;55.748;48.752;2024-01-30T05:38:24;99322.34;;;-3.59;100.00
42603;BME280;28233;55.748;48.752;2024-01-30T05:40:27;99315.91;;;-3.58;100.00
42603;BME280;28233;55.748;48.752;2024-01-30T05:42:31;99296.88;;;-3.57;100.00
42603;BME280;28233;55.748;48.752;2024-01-30T05:44:33;99303.16;;;-3.51;100.00
42603;BME280;28233;55.748;48.752;2024-01-30T05:46:36;99297.56;;;-3.50;100.00
42603;BME280;28233;55.748;48.752;2024-01-30T05:48:40;99298.38;;;-3.49;100.00
42603;BME280;28233;55.748;48.752;2024-01-30T05:50:43;99299.56;;;-3.45;100.00
42603;BME280;28233;55.748;48.752;2024-01-30T05:52:47;99291.59;;;-3.40;100.00
42603;BME280;28233;55.748;48.752;2024-01-30T05:54:50;99289.84;;;-3.34;100.00
42603;BME280;28233;55.748;48.752;2024-01-30T05:56:54;99293.59;;;-3.35;100.00
42603;BME280;28233;55.748;48.752;2024-01-30T05:58:56;99312.97;;;-3.33;100.00
42603;BME280;28233;55.748;48.752;2024-01-30T06:00:59;99298.47;;;-3.32;100.00
42603;BME280;28233;55.748;48.752;2024-01-30T06:03:02;99297.66;;;-3.33;100.00
42603;BME280;28233;55.748;48.752;2024-01-30T06:05:05;99301.16;;;-3.32;100.00
42603;BME280;28233;55.748;48.752;2024-01-30T06:07:08;99301.66;;;-3.35;100.00
42603;BME280;28233;55.748;48.752;2024-01-30T06:09:11;99310.50;;;-3.35;100.00
42603;BME280;28233;55.748;48.752;2024-01-30T06:11:15;99289.84;;;-3.34;100.00
42603;BME280;28233;55.748;48.752;2024-01-30T06:13:18;99291.47;;;-3.33;100.00
42603;BME280;28233;55.748;48.752;2024-01-30T06:15:21;99299.06;;;-3.30;100.00
42603;BME280;28233;55.748;48.752;2024-01-30T06:17:24;99296.38;;;-3.30;100.00
42603;BME280;28233;55.748;48.752;2024-01-30T06:19:26;99302.91;;;-3.26;100.00
42603;BME280;28233;55.748;48.752;2024-01-30T06:21:30;99302.09;;;-3.27;100.00
42603;BME280;28233;55.748;48.752;2024-01-30T06:23:34;99299.16;;;-3.25;100.00
42603;BME280;28233;55.748;48.752;2024-01-30T06:25:36;99304.91;;;-3.22;100.00
42603;BME280;28233;55.748;48.752;2024-01-30T06:27:39;99297.16;;;-3.18;100.00
42603;BME280;28233;55.748;48.752;2024-01-30T06:29:43;99291.34;;;-3.15;100.00
42603;BME280;28233;55.748;48.752;2024-01-30T06:31:46;99300.53;;;-3.11;100.00
42603;BME280;28233;55.748;48.752;2024-01-30T06:33:49;99291.53;;;-3.05;100.00
42603;BME280;28233;55.748;48.752;2024-01-30T06:35:52;99297.72;;;-3.04;100.00
42603;BME280;28233;55.748;48.752;2024-01-30T06:37:55;99295.84;;;-3.04;100.00
42603;BME280;28233;55.748;48.752;2024-01-30T06:39:57;99294.22;;;-3.05;100.00
42603;BME280;28233;55.748;48.752;2024-01-30T06:42:01;99292.09;;;-3.03;100.00
42603;BME280;28233;55.748;48.752;2024-01-30T06:44:04;99278.75;;;-2.98;100.00
42603;BME280;28233;55.748;48.752;2024-01-30T06:46:08;99280.38;;;-2.97;100.00
42603;BME280;28233;55.748;48.752;2024-01-30T06:48:11;99285.31;;;-2.93;100.00
42603;BME280;28233;55.748;48.752;2024-01-30T06:50:14;99278.28;;;-2.94;100.00
42603;BME280;28233;55.748;48.752;2024-01-30T06:52:17;99278.28;;;-2.94;100.00
42603;BME280;28233;55.748;48.752;2024-01-30T06:54:20;99292.97;;;-2.85;100.00
42603;BME280;28233;55.748;48.752;2024-01-30T06:56:23;99268.88;;;-2.80;100.00
42603;BME280;28233;55.748;48.752;2024-01-30T06:58:26;99290.63;;;-2.82;100.00
42603;BME280;28233;55.748;48.752;2024-01-30T07:00:29;99275.31;;;-2.81;100.00
42603;BME280;28233;55.748;48.752;2024-01-30T07:02:31;99261.38;;;-2.78;100.00
42603;BME280;28233;55.748;48.752;2024-01-30T07:04:34;99280.28;;;-2.73;100.00
42603;BME280;28233;55.748;48.752;2024-01-30T07:06:39;99272.81;;;-2.71;100.00
42603;BME280;28233;55.748;48.752;2024-01-30T07:08:42;99283.56;;;-2.71;100.00
42603;BME280;28233;55.748;48.752;2024-01-30T07:10:45;99274.09;;;-2.73;100.00
42603;BME280;28233;55.748;48.752;2024-01-30T07:12:48;99279.03;;;-2.70;100.00
42603;BME280;28233;55.748;48.752;2024-01-30T07:14:51;99279.03;;;-2.70;100.00
42603;BME280;28233;55.748;48.752;2024-01-30T07:16:54;99266.34;;;-2.58;100.00
42603;BME280;28233;55.748;48.752;2024-01-30T07:18:57;99266.72;;;-2.49;100.00
42603;BME280;28233;55.748;48.752;2024-01-30T07:21:00;99260.81;;;-2.35;100.00
42603;BME280;28233;55.748;48.752;2024-01-30T07:23:03;99273.03;;;-2.27;100.00
42603;BME280;28233;55.748;48.752;2024-01-30T07:25:06;99268.81;;;-2.23;100.00
42603;BME280;28233;55.748;48.752;2024-01-30T07:27:09;99260.75;;;-2.23;100.00
42603;BME280;28233;55.748;48.752;2024-01-30T07:29:12;99261.56;;;-2.22;100.00
42603;BME280;28233;55.748;48.752;2024-01-30T07:31:15;99256.00;;;-2.16;100.00
42603;BME280;28233;55.748;48.752;2024-01-30T07:33:18;99263.34;;;-2.11;100.00
42603;BME280;28233;55.748;48.752;2024-01-30T07:35:21;99253.97;;;-2.08;100.00
42603;BME280;28233;55.748;48.752;2024-01-30T07:37:24;99248.81;;;-2.10;100.00
42603;BME280;28233;55.748;48.752;2024-01-30T07:39:27;99247.78;;;-2.09;100.00
42603;BME280;28233;55.748;48.752;2024-01-30T07:41:34;99249.09;;;-2.11;100.00
42603;BME280;28233;55.748;48.752;2024-01-30T07:43:38;99252.25;;;-2.15;100.00
42603;BME280;28233;55.748;48.752;2024-01-30T07:45:41;99264.81;;;-2.03;100.00
42603;BME280;28233;55.748;48.752;2024-01-30T07:47:44;99258.69;;;-1.99;100.00
42603;BME280;28233;55.748;48.752;2024-01-30T07:49:47;99242.94;;;-1.90;100.00
42603;BME280;28233;55.748;48.752;2024-01-30T07:51:50;99260.31;;;-1.81;100.00
42603;BME280;28233;55.748;48.752;2024-01-30T07:53:53;99252.88;;;-1.74;100.00
42603;BME280;28233;55.748;48.752;2024-01-30T07:55:56;99265.09;;;-1.66;100.00
42603;BME280;28233;55.748;48.752;2024-01-30T07:57:59;99260.84;;;-1.62;100.00
42603;BME280;28233;55.748;48.752;2024-01-30T08:00:02;99267.63;;;-1.59;100.00
42603;BME280;28233;55.748;48.752;2024-01-30T08:02:06;99257.66;;;-1.59;100.00
42603;BME280;28233;55.748;48.752;2024-01-30T08:04:09;99255.19;;;-1.60;100.00
42603;BME280;28233;55.748;48.752;2024-01-30T08:06:12;99259.47;;;-1.64;100.00
42603;BME280;28233;55.748;48.752;2024-01-30T08:08:15;99259.78;;;-1.61;100.00
42603;BME280;28233;55.748;48.752;2024-01-30T08:10:17;99264.59;;;-1.63;100.00
42603;BME280;28233;55.748;48.752;2024-01-30T08:12:23;99252.19;;;-1.64;100.00
42603;BME280;28233;55.748;48.752;2024-01-30T08:14:26;99249.56;;;-1.59;100.00
42603;BME280;28233;55.748;48.752;2024-01-30T08:16:29;99240.13;;;-1.61;100.00
42603;BME280;28233;55.748;48.752;2024-01-30T08:18:32;99243.94;;;-1.57;100.00
42603;BME280;28233;55.748;48.752;2024-01-30T08:20:35;99259.03;;;-1.56;100.00
42603;BME280;28233;55.748;48.752;2024-01-30T08:22:38;99244.19;;;-1.59;100.00
42603;BME280;28233;55.748;48.752;2024-01-30T08:24:42;99231.78;;;-1.60;100.00
42603;BME280;28233;55.748;48.752;2024-01-30T08:26:45;99252.28;;;-1.59;100.00
42603;BME280;28233;55.748;48.752;2024-01-30T08:28:48;99246.00;;;-1.64;100.00
42603;BME280;28233;55.748;48.752;2024-01-30T08:30:50;99243.84;;;-1.62;100.00
42603;BME280;28233;55.748;48.752;2024-01-30T08:32:53;99254.91;;;-1.64;100.00
42603;BME280;28233;55.748;48.752;2024-01-30T08:34:56;99251.28;;;-1.70;100.00
42603;BME280;28233;55.748;48.752;2024-01-30T08:37:00;99243.38;;;-1.59;100.00
42603;BME280;28233;55.748;48.752;2024-01-30T08:39:02;99242.31;;;-1.58;100.00
42603;BME280;28233;55.748;48.752;2024-01-30T08:41:08;99239.13;;;-1.55;100.00
42603;BME280;28233;55.748;48.752;2024-01-30T08:43:11;99252.34;;;-1.54;100.00
42603;BME280;28233;55.748;48.752;2024-01-30T08:45:14;99247.56;;;-1.46;100.00
42603;BME280;28233;55.748;48.752;2024-01-30T08:47:17;99250.84;;;-1.44;100.00
42603;BME280;28233;55.748;48.752;2024-01-30T08:49:21;99236.63;;;-1.40;100.00
42603;BME280;28233;55.748;48.752;2024-01-30T08:51:24;99229.91;;;-1.37;100.00
42603;BME280;28233;55.748;48.752;2024-01-30T08:53:26;99247.72;;;-1.36;100.00
42603;BME280;28233;55.748;48.752;2024-01-30T08:55:29;99235.31;;;-1.37;100.00
42603;BME280;28233;55.748;48.752;2024-01-30T08:57:32;99232.59;;;-1.37;100.00
42603;BME280;28233;55.748;48.752;2024-01-30T08:59:35;99223.94;;;-1.39;100.00
42603;BME280;28233;55.748;48.752;2024-01-30T09:01:38;99231.84;;;-1.33;100.00
42603;BME280;28233;55.748;48.752;2024-01-30T09:03:43;99227.03;;;-1.31;100.00
42603;BME280;28233;55.748;48.752;2024-01-30T09:05:48;99239.44;;;-1.30;100.00
42603;BME280;28233;55.748;48.752;2024-01-30T09:07:51;99234.38;;;-1.26;100.00
42603;BME280;28233;55.748;48.752;2024-01-30T09:09:53;99239.25;;;-1.23;100.00
42603;BME280;28233;55.748;48.752;2024-01-30T09:11:56;99242.97;;;-1.29;100.00
42603;BME280;28233;55.748;48.752;2024-01-30T09:14:04;99243.19;;;-1.31;100.00
42603;BME280;28233;55.748;48.752;2024-01-30T09:16:07;99238.94;;;-1.26;100.00
42603;BME280;28233;55.748;48.752;2024-01-30T09:18:09;99237.88;;;-1.25;100.00
42603;BME280;28233;55.748;48.752;2024-01-30T09:20:12;99231.44;;;-1.24;100.00
42603;BME280;28233;55.748;48.752;2024-01-30T09:22:15;99221.13;;;-1.28;100.00
42603;BME280;28233;55.748;48.752;2024-01-30T09:24:18;99237.88;;;-1.25;100.00
42603;BME280;28233;55.748;48.752;2024-01-30T09:26:21;99240.06;;;-1.22;100.00
42603;BME280;28233;55.748;48.752;2024-01-30T09:28:28;99235.78;;;-1.18;100.00
42603;BME280;28233;55.748;48.752;2024-01-30T09:30:32;99236.59;;;-1.18;100.00
42603;BME280;28233;55.748;48.752;2024-01-30T09:32:34;99226.94;;;-1.14;100.00
42603;BME280;28233;55.748;48.752;2024-01-30T09:34:37;99234.81;;;-1.12;100.00
42603;BME280;28233;55.748;48.752;2024-01-30T09:36:42;99225.63;;;-1.11;100.00
42603;BME280;28233;55.748;48.752;2024-01-30T09:38:45;99227.84;;;-1.08;100.00
42603;BME280;28233;55.748;48.752;2024-01-30T09:40:54;99234.81;;;-1.12;100.00
42603;BME280;28233;55.748;48.752;2024-01-30T09:42:58;99225.44;;;-1.04;100.00
42603;BME280;28233;55.748;48.752;2024-01-30T09:45:03;99236.03;;;-0.98;100.00
42603;BME280;28233;55.748;48.752;2024-01-30T09:47:07;99224.69;;;-1.00;100.00
42603;BME280;28233;55.748;48.752;2024-01-30T09:49:10;99219.53;;;-1.01;100.00
42603;BME280;28233;55.748;48.752;2024-01-30T09:51:14;99216.84;;;-1.01;100.00
42603;BME280;28233;55.748;48.752;2024-01-30T09:53:17;99216.34;;;-0.98;100.00
42603;BME280;28233;55.748;48.752;2024-01-30T09:55:20;99223.94;;;-0.95;100.00
42603;BME280;28233;55.748;48.752;2024-01-30T09:57:23;99223.97;;;-0.90;100.00
42603;BME280;28233;55.748;48.752;2024-01-30T09:59:26;99214.56;;;-0.88;100.00
42603;BME280;28233;55.748;48.752;2024-01-30T10:01:29;99218.72;;;-0.80;100.00
42603;BME280;28233;55.748;48.752;2024-01-30T10:03:32;99221.69;;;-0.76;100.00
42603;BME280;28233;55.748;48.752;2024-01-30T10:05:35;99229.84;;;-0.71;100.00
42603;BME280;28233;55.748;48.752;2024-01-30T10:07:50;99232.28;;;-0.70;100.00
42603;BME280;28233;55.748;48.752;2024-01-30T10:09:55;99219.09;;;-0.66;100.00
42603;BME280;28233;55.748;48.752;2024-01-30T10:11:59;99224.56;;;-0.61;100.00
42603;BME280;28233;55.748;48.752;2024-01-30T10:14:02;99222.88;;;-0.67;100.00
42603;BME280;28233;55.748;48.752;2024-01-30T10:16:06;99226.91;;;-0.70;100.00
42603;BME280;28233;55.748;48.752;2024-01-30T10:18:09;99232.84;;;-0.68;100.00
42603;BME280;28233;55.748;48.752;2024-01-30T10:20:13;99230.97;;;-0.67;100.00
42603;BME280;28233;55.748;48.752;2024-01-30T10:22:16;99230.91;;;-0.72;100.00
42603;BME280;28233;55.748;48.752;2024-01-30T10:24:24;99224.59;;;-0.83;100.00
42603;BME280;28233;55.748;48.752;2024-01-30T10:26:27;99225.41;;;-0.82;100.00
42603;BME280;28233;55.748;48.752;2024-01-30T10:28:31;99218.47;;;-0.73;100.00
42603;BME280;28233;55.748;48.752;2024-01-30T10:30:34;99220.16;;;-0.67;100.00
42603;BME280;28233;55.748;48.752;2024-01-30T10:32:37;99225.59;;;-0.62;100.00
42603;BME280;28233;55.748;48.752;2024-01-30T10:34:40;99213.25;;;-0.58;100.00
42603;BME280;28233;55.748;48.752;2024-01-30T10:36:46;99207.94;;;-0.48;100.00